Time;durP1;ratioP1;P1;durP2;ratioP2;P2;SDS_P1;SDS_P2;PMS_P1;PMS_P2;Temp;Humidity;BMP_temperature;BMP_pressure;BME280_temperature;BME280_humidity;BME280_pressure;Samples;Min_cycle;Max_cycle;Signal;HPM_P1;HPM_P2
2022/04/06 00:00:29;;;;;;;28.47;18.60;;;;;;;;;;5093751;28;20440;-69
2022/04/06 00:02:56;;;;;;;28.57;19.23;;;;;;;;;;5094045;28;20447;-69
2022/04/06 00:05:24;;;;;;;29.00;19.60;;;;;;;;;;5093845;28;20485;-69
2022/04/06 00:07:52;;;;;;;29.95;17.42;;;;;;;;;;5094070;28;20454;-69
2022/04/06 00:10:19;;;;;;;26.63;17.10;;;;;;;;;;5093680;28;20200;-68
2022/04/06 00:12:46;;;;;;;27.90;18.53;;;;;;;;;;5093611;28;20436;-69
2022/04/06 00:15:14;;;;;;;31.73;16.98;;;;;;;;;;5093774;28;20450;-69
2022/04/06 00:17:41;;;;;;;23.90;17.10;;;;;;;;;;5093594;28;20194;-69
2022/04/06 00:20:09;;;;;;;22.27;15.77;;;;;;;;;;5094289;28;20446;-69
2022/04/06 00:22:37;;;;;;;22.02;15.75;;;;;;;;;;5094063;28;20459;-69
2022/04/06 00:25:06;;;;;;;22.70;15.60;;;;;;;;;;5093351;28;20749;-69
2022/04/06 00:27:34;;;;;;;24.83;15.50;;;;;;;;;;5093789;28;20455;-69
2022/04/06 00:30:01;;;;;;;26.75;16.70;;;;;;;;;;5093896;28;20190;-69
2022/04/06 00:32:28;;;;;;;21.17;17.23;;;;;;;;;;5093703;28;20555;-69
2022/04/06 00:37:41;;;;;;;29.83;17.07;;;;;;;;;;5093537;28;20484;-69
2022/04/06 00:40:10;;;;;;;22.63;17.35;;;;;;;;;;5093594;28;20798;-69
2022/04/06 00:42:37;;;;;;;28.23;18.53;;;;;;;;;;5093662;28;20197;-69
2022/04/06 00:45:04;;;;;;;35.13;17.23;;;;;;;;;;5093765;28;20501;-69
2022/04/06 00:47:31;;;;;;;37.80;19.20;;;;;;;;;;5095955;28;20478;-69
2022/04/06 00:50:00;;;;;;;31.05;18.25;;;;;;;;;;5097674;28;20448;-69
2022/04/06 00:52:28;;;;;;;21.50;15.40;;;;;;;;;;5097352;28;20189;-69
2022/04/06 00:54:56;;;;;;;31.42;17.25;;;;;;;;;;5097260;28;20510;-69
2022/04/06 00:57:25;;;;;;;20.13;15.57;;;;;;;;;;5097721;28;20199;-69
2022/04/06 00:59:52;;;;;;;25.60;14.77;;;;;;;;;;5098136;28;20427;-68
2022/04/06 01:02:19;;;;;;;33.45;17.35;;;;;;;;;;5098214;28;20193;-68
2022/04/06 01:04:46;;;;;;;29.73;18.33;;;;;;;;;;5097379;28;20615;-68
2022/04/06 01:07:14;;;;;;;17.40;13.50;;;;;;;;;;5097366;28;20197;-68
2022/04/06 01:09:41;;;;;;;27.57;16.33;;;;;;;;;;5097670;28;20525;-68
2022/04/06 01:12:09;;;;;;;21.83;15.35;;;;;;;;;;5096895;28;20439;-68
2022/04/06 01:14:39;;;;;;;25.50;16.30;;;;;;;;;;5097296;28;20555;-68
2022/04/06 01:17:07;;;;;;;21.60;14.50;;;;;;;;;;5097467;28;20443;-68
2022/04/06 01:19:35;;;;;;;21.95;15.23;;;;;;;;;;5096857;28;20442;-66
2022/04/06 01:22:03;;;;;;;30.02;17.08;;;;;;;;;;5097228;28;20196;-69
2022/04/06 01:24:31;;;;;;;19.73;13.23;;;;;;;;;;5097238;28;20244;-69
2022/04/06 01:27:01;;;;;;;24.63;14.00;;;;;;;;;;5096977;28;20439;-69
2022/04/06 01:29:28;;;;;;;21.33;12.60;;;;;;;;;;5096992;28;20488;-69
2022/04/06 01:31:55;;;;;;;22.20;13.13;;;;;;;;;;5096861;28;20197;-69
2022/04/06 01:34:23;;;;;;;20.80;11.17;;;;;;;;;;5096577;28;20250;-69
2022/04/06 01:36:50;;;;;;;25.17;13.63;;;;;;;;;;5096787;28;20799;-69
2022/04/06 01:39:17;;;;;;;24.75;14.40;;;;;;;;;;5096536;28;20435;-69
2022/04/06 01:41:46;;;;;;;22.43;13.80;;;;;;;;;;5096888;28;20193;-70
2022/04/06 01:44:13;;;;;;;26.42;12.05;;;;;;;;;;5097443;28;20482;-70
2022/04/06 01:46:40;;;;;;;19.05;12.05;;;;;;;;;;5096603;28;20232;-69
2022/04/06 01:54:36;;;;;;;24.63;12.90;;;;;;;;;;5096658;28;20177;-70
2022/04/06 01:57:05;;;;;;;25.08;14.02;;;;;;;;;;5096343;28;20450;-68
2022/04/06 01:59:32;;;;;;;19.13;12.45;;;;;;;;;;5096374;28;20673;-68
2022/04/06 02:02:00;;;;;;;19.80;12.35;;;;;;;;;;5096318;28;20200;-68
2022/04/06 02:04:27;;;;;;;28.23;13.68;;;;;;;;;;5096359;28;20214;-68
2022/04/06 02:06:54;;;;;;;15.40;10.57;;;;;;;;;;5096165;28;20193;-69
2022/04/06 02:09:21;;;;;;;23.20;13.07;;;;;;;;;;5096415;28;20193;-68
2022/04/06 02:11:49;;;;;;;20.10;11.30;;;;;;;;;;5096099;28;20484;-68
2022/04/06 02:14:18;;;;;;;14.48;10.60;;;;;;;;;;5096068;28;20948;-68
2022/04/06 02:16:45;;;;;;;17.08;10.68;;;;;;;;;;5096377;28;20210;-68
2022/04/06 02:19:12;;;;;;;16.90;10.57;;;;;;;;;;5096900;28;20283;-69
2022/04/06 02:21:39;;;;;;;19.67;9.30;;;;;;;;;;5095886;28;20196;-67
2022/04/06 02:24:07;;;;;;;25.70;10.27;;;;;;;;;;5096014;28;20436;-67
2022/04/06 02:26:34;;;;;;;14.68;9.00;;;;;;;;;;5096037;28;20450;-68
2022/04/06 02:29:01;;;;;;;19.10;9.43;;;;;;;;;;5095856;28;20203;-68
2022/04/06 02:31:30;;;;;;;17.87;8.93;;;;;;;;;;5095706;28;20451;-68
2022/04/06 02:33:57;;;;;;;21.70;9.77;;;;;;;;;;5095683;28;20527;-68
2022/04/06 02:36:24;;;;;;;19.80;11.30;;;;;;;;;;5095942;28;20220;-68
2022/04/06 02:38:51;;;;;;;13.90;10.33;;;;;;;;;;5095645;28;20462;-68
2022/04/06 02:41:19;;;;;;;31.93;12.30;;;;;;;;;;5095653;28;20448;-68
2022/04/06 02:43:46;;;;;;;21.63;9.27;;;;;;;;;;5095676;28;20492;-68
2022/04/06 02:46:13;;;;;;;20.05;11.98;;;;;;;;;;5094869;28;20498;-68
2022/04/06 02:48:42;;;;;;;16.48;11.48;;;;;;;;;;5095452;28;20250;-68
2022/04/06 02:51:09;;;;;;;23.38;10.10;;;;;;;;;;5095200;28;20193;-68
2022/04/06 02:53:36;;;;;;;23.33;9.80;;;;;;;;;;5095325;28;20189;-68
2022/04/06 02:56:03;;;;;;;17.90;10.63;;;;;;;;;;5095351;28;20200;-68
2022/04/06 02:58:30;;;;;;;17.83;10.02;;;;;;;;;;5094830;28;20200;-68
2022/04/06 03:00:58;;;;;;;14.43;11.23;;;;;;;;;;5095255;28;20216;-67
2022/04/06 03:03:26;;;;;;;18.83;9.23;;;;;;;;;;5094792;28;20439;-67
2022/04/06 03:05:54;;;;;;;15.80;10.70;;;;;;;;;;5094842;28;20298;-67
2022/04/06 03:08:21;;;;;;;18.50;10.43;;;;;;;;;;5094959;28;20439;-67
2022/04/06 03:10:48;;;;;;;24.17;11.05;;;;;;;;;;5094469;28;20438;-67
2022/04/06 03:13:16;;;;;;;20.83;11.25;;;;;;;;;;5094866;28;20196;-67
2022/04/06 03:15:43;;;;;;;19.85;10.43;;;;;;;;;;5094704;28;20204;-68
2022/04/06 03:18:11;;;;;;;18.08;10.88;;;;;;;;;;5094725;28;20196;-68
2022/04/06 03:20:38;;;;;;;17.88;11.00;;;;;;;;;;5094530;28;20202;-67
2022/04/06 03:23:07;;;;;;;18.92;11.02;;;;;;;;;;5094684;28;20189;-68
2022/04/06 03:25:34;;;;;;;14.10;11.90;;;;;;;;;;5095188;28;20219;-68
2022/04/06 03:28:01;;;;;;;25.45;11.20;;;;;;;;;;5094322;28;20284;-68
2022/04/06 03:30:28;;;;;;;13.57;8.63;;;;;;;;;;5094347;28;20205;-67
2022/04/06 03:32:55;;;;;;;14.60;9.07;;;;;;;;;;5094921;28;20650;-69
2022/04/06 03:35:23;;;;;;;19.35;11.15;;;;;;;;;;5094235;28;20201;-67
2022/04/06 03:37:52;;;;;;;23.30;12.57;;;;;;;;;;5094388;28;20562;-68
2022/04/06 03:40:20;;;;;;;25.27;11.10;;;;;;;;;;5094872;28;20492;-68
2022/04/06 03:42:48;;;;;;;18.20;10.57;;;;;;;;;;5094616;28;20446;-68
2022/04/06 03:45:15;;;;;;;19.17;12.90;;;;;;;;;;5094121;28;20224;-68
2022/04/06 03:47:43;;;;;;;18.17;11.02;;;;;;;;;;5093983;28;20472;-68
2022/04/06 03:50:10;;;;;;;17.73;13.18;;;;;;;;;;5094373;28;20196;-68
2022/04/06 03:52:37;;;;;;;19.30;12.47;;;;;;;;;;5093935;28;20200;-69
2022/04/06 03:55:07;;;;;;;14.87;8.80;;;;;;;;;;5093884;28;20477;-69
2022/04/06 03:57:35;;;;;;;25.35;11.50;;;;;;;;;;5094442;28;20449;-68
2022/04/06 04:00:04;;;;;;;18.20;11.60;;;;;;;;;;5094273;28;20213;-68
2022/04/06 04:02:31;;;;;;;14.95;10.88;;;;;;;;;;5094130;28;20193;-68
2022/04/06 04:04:59;;;;;;;15.10;10.90;;;;;;;;;;5094271;28;20225;-69
2022/04/06 04:07:26;;;;;;;16.77;10.00;;;;;;;;;;5094467;28;20193;-68
2022/04/06 04:09:54;;;;;;;15.85;9.70;;;;;;;;;;5094288;28;20444;-69
2022/04/06 04:12:21;;;;;;;21.85;11.63;;;;;;;;;;5093651;28;20275;-69
2022/04/06 04:14:49;;;;;;;18.63;9.70;;;;;;;;;;5093441;28;20200;-68
2022/04/06 04:17:17;;;;;;;15.20;11.45;;;;;;;;;;5093431;28;20447;-68
2022/04/06 04:19:45;;;;;;;13.55;8.90;;;;;;;;;;5092810;28;20280;-68
2022/04/06 04:22:13;;;;;;;23.70;11.57;;;;;;;;;;5093471;28;20199;-69
2022/04/06 04:24:40;;;;;;;16.33;9.85;;;;;;;;;;5093185;28;20201;-69
2022/04/06 04:27:07;;;;;;;19.13;9.40;;;;;;;;;;5093624;28;20193;-69
2022/04/06 04:29:35;;;;;;;16.90;8.98;;;;;;;;;;5093124;28;20442;-68
2022/04/06 04:32:04;;;;;;;11.15;8.40;;;;;;;;;;5093458;28;20300;-68
2022/04/06 04:34:31;;;;;;;16.92;10.23;;;;;;;;;;5093084;28;20205;-68
2022/04/06 04:36:58;;;;;;;18.17;9.40;;;;;;;;;;5093392;28;20224;-69
2022/04/06 04:39:25;;;;;;;15.73;8.33;;;;;;;;;;5093271;28;20572;-68
2022/04/06 04:41:52;;;;;;;16.43;8.57;;;;;;;;;;5092869;28;20973;-69
2022/04/06 04:44:19;;;;;;;17.83;9.03;;;;;;;;;;5093318;28;20447;-69
2022/04/06 04:46:47;;;;;;;13.07;9.65;;;;;;;;;;5092645;28;20486;-69
2022/04/06 04:49:15;;;;;;;16.47;8.30;;;;;;;;;;5093240;28;20196;-70
2022/04/06 04:51:43;;;;;;;12.73;8.27;;;;;;;;;;5093179;28;20543;-69
2022/04/06 04:54:10;;;;;;;15.85;7.70;;;;;;;;;;5093093;28;20207;-68
2022/04/06 04:56:40;;;;;;;12.75;6.47;;;;;;;;;;5093109;28;20296;-69
2022/04/06 04:59:07;;;;;;;16.80;7.63;;;;;;;;;;5093518;28;20182;-69
2022/04/06 05:01:35;;;;;;;14.87;7.70;;;;;;;;;;5093430;28;20192;-69
2022/04/06 05:04:02;;;;;;;14.18;7.35;;;;;;;;;;5093004;28;20444;-69
2022/04/06 05:06:31;;;;;;;16.60;7.40;;;;;;;;;;5093514;28;20221;-69
2022/04/06 05:08:58;;;;;;;15.30;8.10;;;;;;;;;;5092670;28;20286;-69
2022/04/06 05:11:25;;;;;;;14.65;6.47;;;;;;;;;;5093065;28;20530;-69
2022/04/06 05:13:52;;;;;;;15.30;7.15;;;;;;;;;;5092443;28;20197;-69
2022/04/06 05:16:20;;;;;;;11.38;6.15;;;;;;;;;;5093344;28;20194;-69
2022/04/06 05:18:47;;;;;;;13.95;7.13;;;;;;;;;;5092846;28;20655;-68
2022/04/06 05:21:14;;;;;;;7.75;5.45;;;;;;;;;;5092933;28;20200;-68
2022/04/06 05:23:42;;;;;;;9.90;5.87;;;;;;;;;;5093170;28;20201;-69
2022/04/06 05:26:10;;;;;;;13.65;6.65;;;;;;;;;;5093156;28;20532;-68
2022/04/06 05:28:37;;;;;;;18.00;6.35;;;;;;;;;;5093228;28;20286;-69
2022/04/06 05:31:04;;;;;;;15.10;6.00;;;;;;;;;;5093324;28;20190;-69
2022/04/06 05:33:31;;;;;;;9.05;5.43;;;;;;;;;;5095144;28;20446;-69
2022/04/06 05:35:59;;;;;;;16.58;6.70;;;;;;;;;;5096701;28;20197;-69
2022/04/06 05:38:26;;;;;;;16.77;7.03;;;;;;;;;;5096483;28;20192;-69
2022/04/06 05:40:55;;;;;;;7.97;5.45;;;;;;;;;;5096349;28;20200;-69
2022/04/06 05:43:22;;;;;;;8.45;5.63;;;;;;;;;;5096953;28;20542;-69
2022/04/06 05:45:49;;;;;;;8.23;5.70;;;;;;;;;;5096368;28;20224;-68
2022/04/06 05:48:17;;;;;;;16.03;6.00;;;;;;;;;;5096757;28;20192;-69
2022/04/06 05:50:44;;;;;;;11.13;5.70;;;;;;;;;;5096459;28;20440;-68
2022/04/06 05:53:11;;;;;;;11.60;5.93;;;;;;;;;;5096351;28;20530;-69
2022/04/06 05:55:40;;;;;;;10.27;5.20;;;;;;;;;;5096509;28;20198;-69
2022/04/06 05:58:09;;;;;;;13.27;6.20;;;;;;;;;;5096697;28;20436;-69
2022/04/06 06:00:36;;;;;;;12.43;5.57;;;;;;;;;;5095977;28;20646;-69
2022/04/06 06:03:04;;;;;;;12.60;6.00;;;;;;;;;;5095992;28;20232;-69
2022/04/06 06:05:31;;;;;;;7.75;5.07;;;;;;;;;;5096092;28;20239;-69
2022/04/06 06:07:58;;;;;;;13.75;4.63;;;;;;;;;;5096389;28;20287;-69
2022/04/06 06:10:26;;;;;;;15.03;4.93;;;;;;;;;;5095745;28;20201;-69
2022/04/06 06:12:55;;;;;;;6.80;4.00;;;;;;;;;;5095833;28;20932;-69
2022/04/06 06:15:24;;;;;;;9.07;4.87;;;;;;;;;;5095749;28;20443;-69
2022/04/06 06:17:52;;;;;;;7.28;5.57;;;;;;;;;;5096007;28;20450;-69
2022/04/06 06:20:20;;;;;;;12.37;4.33;;;;;;;;;;5095992;28;20651;-69
2022/04/06 06:22:47;;;;;;;13.03;4.87;;;;;;;;;;5095551;28;20936;-69
2022/04/06 06:25:14;;;;;;;14.88;5.88;;;;;;;;;;5095533;28;20446;-69
2022/04/06 06:27:43;;;;;;;9.95;4.25;;;;;;;;;;5095398;28;20223;-69
2022/04/06 06:30:12;;;;;;;7.23;4.20;;;;;;;;;;5095996;28;20224;-69
2022/04/06 06:32:41;;;;;;;10.35;4.00;;;;;;;;;;5095464;28;20485;-69
2022/04/06 06:35:09;;;;;;;6.15;4.28;;;;;;;;;;5095636;28;20208;-69
2022/04/06 06:37:36;;;;;;;4.13;3.70;;;;;;;;;;5096212;28;20299;-69
2022/04/06 06:40:04;;;;;;;8.30;4.03;;;;;;;;;;5095195;28;20284;-69
2022/04/06 06:42:31;;;;;;;6.47;4.18;;;;;;;;;;5095922;28;20819;-69
2022/04/06 06:44:59;;;;;;;8.53;4.10;;;;;;;;;;5094637;28;20198;-70
2022/04/06 06:47:26;;;;;;;12.17;4.63;;;;;;;;;;5094850;28;20498;-69
2022/04/06 06:49:54;;;;;;;13.00;4.00;;;;;;;;;;5094868;28;20440;-70
2022/04/06 06:52:22;;;;;;;11.50;5.50;;;;;;;;;;5095186;28;20454;-69
2022/04/06 06:54:49;;;;;;;6.73;3.77;;;;;;;;;;5094839;28;20537;-69
2022/04/06 06:57:16;;;;;;;11.43;4.50;;;;;;;;;;5095317;28;20474;-70
2022/04/06 06:59:43;;;;;;;8.60;4.45;;;;;;;;;;5095075;28;20204;-70
2022/04/06 07:02:10;;;;;;;12.33;4.70;;;;;;;;;;5094868;28;20198;-70
2022/04/06 07:04:38;;;;;;;6.93;4.50;;;;;;;;;;5095108;28;20467;-70
2022/04/06 07:07:06;;;;;;;5.13;4.00;;;;;;;;;;5094709;28;20570;-70
2022/04/06 07:09:33;;;;;;;9.13;5.13;;;;;;;;;;5095021;28;20450;-70
2022/04/06 07:12:01;;;;;;;9.13;4.20;;;;;;;;;;5094564;28;20496;-70
2022/04/06 07:14:28;;;;;;;11.52;4.45;;;;;;;;;;5094905;28;20447;-70
2022/04/06 07:16:55;;;;;;;14.70;4.90;;;;;;;;;;5095141;28;20197;-70
2022/04/06 07:19:23;;;;;;;9.80;5.30;;;;;;;;;;5095217;28;20216;-70
2022/04/06 07:21:50;;;;;;;8.90;5.13;;;;;;;;;;5094314;28;20940;-70
2022/04/06 07:24:19;;;;;;;9.43;4.60;;;;;;;;;;5094676;28;20527;-70
2022/04/06 07:26:46;;;;;;;12.50;4.85;;;;;;;;;;5094337;28;20545;-70
2022/04/06 07:29:15;;;;;;;8.63;4.72;;;;;;;;;;5094364;28;20196;-70
2022/04/06 07:31:42;;;;;;;11.00;5.87;;;;;;;;;;5094225;28;20189;-70
2022/04/06 07:34:09;;;;;;;10.10;4.83;;;;;;;;;;5094224;28;20937;-70
2022/04/06 07:36:37;;;;;;;6.23;5.10;;;;;;;;;;5094399;28;20494;-70
2022/04/06 07:39:04;;;;;;;13.00;5.70;;;;;;;;;;5094501;28;20791;-70
2022/04/06 07:41:33;;;;;;;9.10;4.87;;;;;;;;;;5094771;28;20522;-70
2022/04/06 07:44:02;;;;;;;9.17;6.27;;;;;;;;;;5094374;28;20443;-70
2022/04/06 07:46:29;;;;;;;5.50;3.63;;;;;;;;;;5093791;28;20487;-70
2022/04/06 07:48:56;;;;;;;9.05;4.97;;;;;;;;;;5094097;28;20906;-70
2022/04/06 07:51:23;;;;;;;11.33;5.10;;;;;;;;;;5094202;28;20199;-69
2022/04/06 07:53:51;;;;;;;6.67;4.60;;;;;;;;;;5094288;28;20443;-70
2022/04/06 07:56:18;;;;;;;6.90;3.53;;;;;;;;;;5093619;28;20456;-69
2022/04/06 07:58:46;;;;;;;8.85;4.32;;;;;;;;;;5093989;28;20867;-70
2022/04/06 08:01:14;;;;;;;5.63;3.40;;;;;;;;;;5094093;28;20196;-70
2022/04/06 08:03:41;;;;;;;11.07;4.20;;;;;;;;;;5093964;28;20987;-70
2022/04/06 08:06:08;;;;;;;12.10;4.55;;;;;;;;;;5094017;28;20865;-70
2022/04/06 08:08:36;;;;;;;6.03;3.90;;;;;;;;;;5093991;28;20218;-70
2022/04/06 08:11:05;;;;;;;6.18;3.60;;;;;;;;;;5093865;28;20197;-70
2022/04/06 08:13:32;;;;;;;8.37;3.80;;;;;;;;;;5093585;28;20208;-70
2022/04/06 08:16:01;;;;;;;10.93;5.03;;;;;;;;;;5093287;28;20773;-69
2022/04/06 08:18:28;;;;;;;8.70;3.30;;;;;;;;;;5093584;28;20310;-70
2022/04/06 08:20:56;;;;;;;4.75;3.22;;;;;;;;;;5093723;28;20467;-70
2022/04/06 08:23:23;;;;;;;5.93;3.10;;;;;;;;;;5093960;28;20197;-70
2022/04/06 08:25:52;;;;;;;3.42;3.13;;;;;;;;;;5093434;28;20439;-70
2022/04/06 08:28:19;;;;;;;8.15;2.38;;;;;;;;;;5093223;28;20270;-70
2022/04/06 08:30:47;;;;;;;4.30;2.60;;;;;;;;;;5093512;28;20647;-70
2022/04/06 08:33:16;;;;;;;7.53;3.53;;;;;;;;;;5093768;28;20450;-70
2022/04/06 08:35:44;;;;;;;3.97;3.57;;;;;;;;;;5093571;28;20443;-70
2022/04/06 08:38:15;;;;;;;6.87;2.77;;;;;;;;;;5093762;28;20537;-70
2022/04/06 08:40:43;;;;;;;6.30;3.20;;;;;;;;;;5093607;28;20428;-70
2022/04/06 08:43:11;;;;;;;12.63;4.00;;;;;;;;;;5093618;28;20523;-70
2022/04/06 08:45:39;;;;;;;5.30;2.90;;;;;;;;;;5093305;28;20440;-71
2022/04/06 08:48:08;;;;;;;4.73;3.30;;;;;;;;;;5093060;28;20292;-70
2022/04/06 08:50:37;;;;;;;7.97;3.85;;;;;;;;;;5093438;28;20442;-70
2022/04/06 08:53:05;;;;;;;6.00;4.57;;;;;;;;;;5093490;28;20193;-70
2022/04/06 08:55:33;;;;;;;8.40;4.90;;;;;;;;;;5093436;28;20542;-69
2022/04/06 08:58:01;;;;;;;8.63;4.07;;;;;;;;;;5093006;28;20542;-70
2022/04/06 09:00:28;;;;;;;6.37;3.90;;;;;;;;;;5093590;28;20550;-70
2022/04/06 09:02:56;;;;;;;7.43;3.70;;;;;;;;;;5093655;28;20530;-70
2022/04/06 09:05:25;;;;;;;12.23;4.70;;;;;;;;;;5093410;28;20451;-70
2022/04/06 09:07:54;;;;;;;7.97;3.70;;;;;;;;;;5094601;28;20479;-70
2022/04/06 09:10:30;;;;;;;6.40;3.63;;;;;;;;;;5097689;28;20881;-70
2022/04/06 09:13:08;;;;;;;5.70;3.93;;;;;;;;;;5097450;28;20780;-70
2022/04/06 09:15:35;;;;;;;5.10;3.70;;;;;;;;;;5097943;28;20455;-70
2022/04/06 09:18:03;;;;;;;9.40;4.47;;;;;;;;;;5097436;28;20492;-70
2022/04/06 09:20:31;;;;;;;5.83;4.03;;;;;;;;;;5097115;28;20609;-70
2022/04/06 09:23:02;;;;;;;6.13;3.97;;;;;;;;;;5096999;28;20439;-70
2022/04/06 09:25:33;;;;;;;6.77;3.90;;;;;;;;;;5097379;28;20454;-70
2022/04/06 09:28:06;;;;;;;8.35;4.70;;;;;;;;;;5096604;28;20505;-70
2022/04/06 09:30:34;;;;;;;6.67;4.40;;;;;;;;;;5097392;28;20269;-70
2022/04/06 09:33:03;;;;;;;8.97;4.43;;;;;;;;;;5096786;28;20547;-70
2022/04/06 09:35:32;;;;;;;4.30;3.90;;;;;;;;;;5096946;28;20439;-70
2022/04/06 09:38:13;;;;;;;10.93;4.37;;;;;;;;;;5096328;28;20538;-70
2022/04/06 09:40:41;;;;;;;5.43;4.37;;;;;;;;;;5097139;28;20495;-70
2022/04/06 09:43:08;;;;;;;7.70;5.03;;;;;;;;;;5096685;28;20430;-70
2022/04/06 09:48:20;;;;;;;7.80;4.80;;;;;;;;;;5096356;28;20462;-70
2022/04/06 09:50:55;;;;;;;7.60;5.50;;;;;;;;;;5097416;28;20530;-70
2022/04/06 09:53:26;;;;;;;6.70;5.80;;;;;;;;;;5096397;28;20476;-70
2022/04/06 09:55:54;;;;;;;8.90;6.10;;;;;;;;;;5096446;28;20431;-70
2022/04/06 09:58:23;;;;;;;9.47;5.63;;;;;;;;;;5096322;28;20471;-70
2022/04/06 10:00:50;;;;;;;10.30;6.70;;;;;;;;;;5096351;28;20637;-70
2022/04/06 10:03:19;;;;;;;7.60;6.80;;;;;;;;;;5096275;28;20453;-70
2022/04/06 10:05:48;;;;;;;8.97;6.70;;;;;;;;;;5096452;28;20461;-70
2022/04/06 10:08:17;;;;;;;9.10;6.10;;;;;;;;;;5095802;28;20998;-70
2022/04/06 10:10:47;;;;;;;11.57;7.40;;;;;;;;;;5096164;28;20870;-70
2022/04/06 10:13:14;;;;;;;8.17;6.00;;;;;;;;;;5095681;28;20427;-70
2022/04/06 10:15:42;;;;;;;11.07;6.57;;;;;;;;;;5095723;28;20449;-70
2022/04/06 10:18:09;;;;;;;9.03;6.17;;;;;;;;;;5095877;28;20439;-70
2022/04/06 10:20:40;;;;;;;6.07;5.47;;;;;;;;;;5095976;28;20431;-70
2022/04/06 10:23:12;;;;;;;9.20;5.83;;;;;;;;;;5095961;28;20489;-69
2022/04/06 10:25:45;;;;;;;8.98;5.55;;;;;;;;;;5096052;28;20432;-70
2022/04/06 10:28:13;;;;;;;5.93;5.38;;;;;;;;;;5095404;28;20219;-70
2022/04/06 10:30:41;;;;;;;7.80;5.25;;;;;;;;;;5095838;28;20220;-70
2022/04/06 10:33:19;;;;;;;9.20;5.27;;;;;;;;;;5095343;28;20194;-70
2022/04/06 10:35:46;;;;;;;8.07;5.40;;;;;;;;;;5095699;28;20535;-70
2022/04/06 10:38:15;;;;;;;6.10;4.30;;;;;;;;;;5095871;28;20442;-70
2022/04/06 10:40:58;;;;;;;6.53;3.80;;;;;;;;;;5095315;28;20447;-70
2022/04/06 10:43:44;;;;;;;6.53;5.13;;;;;;;;;;5095094;28;20443;-70
2022/04/06 10:46:17;;;;;;;6.80;4.87;;;;;;;;;;5095148;28;20471;-70
2022/04/06 10:48:57;;;;;;;8.37;5.30;;;;;;;;;;5095398;28;20473;-70
2022/04/06 10:51:28;;;;;;;4.67;4.20;;;;;;;;;;5095056;28;20431;-70
2022/04/06 10:53:55;;;;;;;11.60;4.70;;;;;;;;;;5094918;28;20439;-70
2022/04/06 10:56:23;;;;;;;5.60;5.03;;;;;;;;;;5095092;28;20435;-70
2022/04/06 10:59:10;;;;;;;4.43;4.07;;;;;;;;;;5094937;28;20467;-70
2022/04/06 11:01:45;;;;;;;6.43;5.10;;;;;;;;;;5095164;28;20439;-70
2022/04/06 11:04:17;;;;;;;7.47;5.73;;;;;;;;;;5095291;28;20427;-70
2022/04/06 11:06:52;;;;;;;7.83;4.73;;;;;;;;;;5095717;28;20500;-70
2022/04/06 11:12:12;;;;;;;6.30;5.77;;;;;;;;;;5095000;28;20897;-69
2022/04/06 11:14:39;;;;;;;8.25;6.57;;;;;;;;;;5094674;28;20444;-70
2022/04/06 11:17:26;;;;;;;8.60;5.90;;;;;;;;;;5095447;28;20200;-70
2022/04/06 11:19:54;;;;;;;7.30;5.90;;;;;;;;;;5094819;28;20443;-70
2022/04/06 11:22:23;;;;;;;5.43;4.93;;;;;;;;;;5094650;28;20201;-70
2022/04/06 11:24:50;;;;;;;7.03;5.20;;;;;;;;;;5094818;28;20859;-70
2022/04/06 11:27:27;;;;;;;7.13;3.83;;;;;;;;;;5094195;28;20566;-70
2022/04/06 11:29:59;;;;;;;3.38;3.17;;;;;;;;;;5094870;28;20434;-70
2022/04/06 11:32:26;;;;;;;6.80;5.97;;;;;;;;;;5094787;28;20186;-70
2022/04/06 11:34:59;;;;;;;6.13;5.70;;;;;;;;;;5094718;28;20873;-70
2022/04/06 11:37:27;;;;;;;5.93;4.70;;;;;;;;;;5094921;28;20500;-70
2022/04/06 11:39:57;;;;;;;6.00;4.50;;;;;;;;;;5094244;28;20532;-70
2022/04/06 11:42:25;;;;;;;4.80;4.33;;;;;;;;;;5094780;28;20438;-70
2022/04/06 11:44:52;;;;;;;10.60;6.57;;;;;;;;;;5094338;28;20443;-69
2022/04/06 11:47:27;;;;;;;7.80;5.50;;;;;;;;;;5093723;28;20479;-70
2022/04/06 11:49:56;;;;;;;7.57;6.70;;;;;;;;;;5094508;28;20466;-70
2022/04/06 11:52:23;;;;;;;7.70;7.00;;;;;;;;;;5093993;28;20458;-70
2022/04/06 11:54:52;;;;;;;9.40;6.73;;;;;;;;;;5093967;28;20439;-69
2022/04/06 11:57:19;;;;;;;7.80;7.00;;;;;;;;;;5094140;28;20451;-71
2022/04/06 11:59:53;;;;;;;8.83;8.03;;;;;;;;;;5093813;28;20534;-70
2022/04/06 12:02:20;;;;;;;11.63;9.80;;;;;;;;;;5094327;28;20439;-70
2022/04/06 12:04:48;;;;;;;12.20;11.10;;;;;;;;;;5093638;28;20446;-70
2022/04/06 12:07:21;;;;;;;9.70;8.90;;;;;;;;;;5093370;28;20440;-70
2022/04/06 12:09:48;;;;;;;9.23;7.67;;;;;;;;;;5093601;28;20204;-70
2022/04/06 12:12:16;;;;;;;9.97;9.00;;;;;;;;;;5093739;28;20451;-69
2022/04/06 12:14:44;;;;;;;11.70;10.65;;;;;;;;;;5093514;28;20505;-70
2022/04/06 12:17:11;;;;;;;10.40;9.48;;;;;;;;;;5093475;28;20246;-71
2022/04/06 12:19:38;;;;;;;10.73;9.63;;;;;;;;;;5093792;28;20266;-72
2022/04/06 12:22:11;;;;;;;14.27;9.68;;;;;;;;;;5093500;28;20836;-72
2022/04/06 12:24:39;;;;;;;9.43;8.32;;;;;;;;;;5093055;28;20199;-72
2022/04/06 12:27:07;;;;;;;11.23;10.05;;;;;;;;;;5093959;28;20198;-72
2022/04/06 12:29:35;;;;;;;11.93;10.82;;;;;;;;;;5093207;28;20219;-72
2022/04/06 12:32:03;;;;;;;16.90;11.45;;;;;;;;;;5093126;28;20201;-72
2022/04/06 12:34:32;;;;;;;17.00;14.52;;;;;;;;;;5093271;28;20193;-72
2022/04/06 12:36:59;;;;;;;16.10;14.55;;;;;;;;;;5093189;28;20196;-72
2022/04/06 12:39:26;;;;;;;19.97;14.70;;;;;;;;;;5093387;28;20220;-72
2022/04/06 12:41:59;;;;;;;19.02;15.23;;;;;;;;;;5092913;28;20481;-72
2022/04/06 12:44:27;;;;;;;17.27;15.43;;;;;;;;;;5097392;28;20198;-72
2022/04/06 12:46:54;;;;;;;17.43;14.33;;;;;;;;;;5096992;28;20217;-72
2022/04/06 12:49:23;;;;;;;18.03;13.20;;;;;;;;;;5097474;28;20489;-71
2022/04/06 12:52:03;;;;;;;17.10;15.30;;;;;;;;;;5097629;28;20443;-71
2022/04/06 12:54:31;;;;;;;15.70;14.10;;;;;;;;;;5098025;28;20438;-71
2022/04/06 12:57:10;;;;;;;17.50;12.70;;;;;;;;;;5097657;28;20443;-71
2022/04/06 12:59:38;;;;;;;14.98;13.35;;;;;;;;;;5097338;28;20826;-71
2022/04/06 13:02:06;;;;;;;14.80;11.48;;;;;;;;;;5097738;28;20193;-70
2022/04/06 13:04:38;;;;;;;16.77;12.10;;;;;;;;;;5097348;28;20287;-72
2022/04/06 13:07:07;;;;;;;13.38;11.52;;;;;;;;;;5096769;28;20439;-71
2022/04/06 13:09:34;;;;;;;12.73;11.37;;;;;;;;;;5097155;28;20224;-71
2022/04/06 13:12:01;;;;;;;17.03;12.40;;;;;;;;;;5097438;28;20527;-71
2022/04/06 13:14:30;;;;;;;12.73;9.93;;;;;;;;;;5098675;28;20792;-72
2022/04/06 13:17:00;;;;;;;9.13;8.32;;;;;;;;;;5097420;28;20443;-70
2022/04/06 13:19:27;;;;;;;9.73;8.57;;;;;;;;;;5097236;28;20197;-70
2022/04/06 13:21:54;;;;;;;10.00;9.00;;;;;;;;;;5096750;28;20690;-70
2022/04/06 13:24:22;;;;;;;11.93;8.47;;;;;;;;;;5096885;28;20526;-70
2022/04/06 13:26:50;;;;;;;12.98;7.80;;;;;;;;;;5096403;28;20457;-71
2022/04/06 13:29:17;;;;;;;9.63;8.60;;;;;;;;;;5096349;28;20616;-71
2022/04/06 13:31:46;;;;;;;7.90;7.20;;;;;;;;;;5096665;28;20985;-71
2022/04/06 13:34:16;;;;;;;8.90;7.97;;;;;;;;;;5096552;28;20957;-71
2022/04/06 13:36:44;;;;;;;9.33;7.60;;;;;;;;;;5096335;28;20435;-71
2022/04/06 13:39:12;;;;;;;9.93;7.22;;;;;;;;;;5096743;28;20470;-71
2022/04/06 13:41:40;;;;;;;10.90;7.70;;;;;;;;;;5096357;28;20197;-71
2022/04/06 13:44:08;;;;;;;7.80;6.37;;;;;;;;;;5096202;28;20461;-71
2022/04/06 13:46:35;;;;;;;7.78;7.07;;;;;;;;;;5096123;28;20682;-70
2022/04/06 13:49:04;;;;;;;6.90;6.30;;;;;;;;;;5096229;28;20241;-69
2022/04/06 13:51:32;;;;;;;9.60;6.70;;;;;;;;;;5096305;28;20535;-69
2022/04/06 13:53:59;;;;;;;6.93;6.22;;;;;;;;;;5095703;28;20439;-70
2022/04/06 13:56:26;;;;;;;7.73;6.77;;;;;;;;;;5096345;28;20280;-69
2022/04/06 13:58:54;;;;;;;6.67;6.10;;;;;;;;;;5096366;28;20490;-70
2022/04/06 14:01:21;;;;;;;6.43;5.77;;;;;;;;;;5095949;28;20443;-71
2022/04/06 14:03:48;;;;;;;7.70;5.63;;;;;;;;;;5096190;28;20939;-71
2022/04/06 14:06:17;;;;;;;7.43;5.50;;;;;;;;;;5096260;28;20454;-75
2022/04/06 14:08:45;;;;;;;5.75;4.80;;;;;;;;;;5095438;28;20475;-72
2022/04/06 14:11:12;;;;;;;7.27;6.60;;;;;;;;;;5095873;28;20711;-78
2022/04/06 14:13:39;;;;;;;8.27;5.03;;;;;;;;;;5096401;28;20446;-69
2022/04/06 14:16:06;;;;;;;5.40;4.90;;;;;;;;;;5095459;28;20444;-69
2022/04/06 14:18:35;;;;;;;7.13;5.10;;;;;;;;;;5095704;28;20458;-69
2022/04/06 14:21:03;;;;;;;6.57;5.93;;;;;;;;;;5095845;28;20945;-69
2022/04/06 14:23:31;;;;;;;7.97;5.63;;;;;;;;;;5094868;28;20439;-71
2022/04/06 14:25:58;;;;;;;5.67;5.27;;;;;;;;;;5095518;28;20442;-71
2022/04/06 14:28:26;;;;;;;5.23;4.83;;;;;;;;;;5095237;28;20475;-70
2022/04/06 14:30:54;;;;;;;7.40;6.10;;;;;;;;;;5095274;28;21013;-71
2022/04/06 14:33:21;;;;;;;11.90;5.63;;;;;;;;;;5095721;28;20452;-70
2022/04/06 14:35:49;;;;;;;5.03;4.53;;;;;;;;;;5095647;28;20444;-70
2022/04/06 14:38:16;;;;;;;8.70;7.70;;;;;;;;;;5095552;28;20792;-70
2022/04/06 14:40:49;;;;;;;9.30;5.33;;;;;;;;;;5095654;28;20475;-70
2022/04/06 14:43:18;;;;;;;7.20;5.30;;;;;;;;;;5095259;28;20948;-70
2022/04/06 14:45:45;;;;;;;5.37;4.80;;;;;;;;;;5095578;28;20447;-70
2022/04/06 14:48:13;;;;;;;5.23;4.73;;;;;;;;;;5095365;28;20463;-70
2022/04/06 14:50:40;;;;;;;5.40;4.77;;;;;;;;;;5095112;28;20443;-70